Terminal Aerodrome Forecast
Issued by NWS Northern Indiana

Home | Current Version | Previous Version | Graphics & Text | Print | Product List | Glossary On
Versions: 1 2 3 4 5 6 7 8 9 10 11 12 13 14 15 16
000
FTUS43 KIWX 300800 AAA
TAFFWA
TAF AMD
KFWA 300800Z 3008/3106 VRB03KT 2SM BR SCT002 BKN050
      TEMPO 3010/3012 3/4SM BR BKN002
     FM301400 22007KT P6SM BKN040
     FM310100 22004KT P6SM SCT040=

USA.gov is the U.S. government's official web portal to all federal, state and local government web resources and services.